Airfield :
LOGIN :

Register | Disclaimer

   EN    FR    IT 

 










Legend :    VFR   Marginal VFR   IFR   Intensive IFR   Very Intensive IFR
Visi :
Ceiling :
>= 8 km
>= 3000ft
5 to 8 km
1000 to 3000 ft
1500m to 5 km
500 to 1000 ft
800 to 1500m
200 to 500 ft
< 800m
< 200 ft
Symbols :   Thunderstorms  Fog  Heavy snow  Heavy precipitations  Wind > 20 kt
SIGMETs :     Misc.  Thunderstorms  Icing  Turbulence  Mountain Waves  Volcanic Ashes







- Airport Elevation : 162 ft
- IATA code : BOD
- Download approach charts


LFBD - Bordeaux / Merignac

CURRENT METAR :
  • 181230Z AUTO 14006KT 090V200 CAVOK 19/11 Q1016 NOSIG

EXPIRED METARs :
  • 181200Z AUTO 13006KT 110V170 CAVOK 19/11 Q1016 NOSIG
  • 181130Z AUTO 14009KT CAVOK 17/10 Q1016 NOSIG
  • 181100Z AUTO 12009KT CAVOK 17/10 Q1015 NOSIG
  • 181030Z AUTO 13010KT CAVOK 16/10 Q1015 NOSIG
  • 181000Z AUTO 13010KT 100V160 CAVOK 16/10 Q1015 NOSIG

TAF TAF LFBD
Valid from the 18 at 12:00 until the 19 at 18:00 UTC


181100Z 1812/1918 12010KT CAVOK TX21/1915Z TN13/1906Z
TEMPO 1910/1917 12015G25KT
ATIS : +33 5 57 92 81 04
No reported NOTAMs for that airfield.
2 SIGMETs reported for the Bordeaux FIR (LFBB) :
 
Severe turbulence
LFBB SIGMET 3 VALID 181300/181700 LFPW
LFBB BORDEAUX FIR/UIR SEV TURB FCST WI N4445 E00245 - N4300 E00230 - N4245 E00215 - N4345 E00100 - N4445 E00245 SFC/FL060 STNR NC=
Severe turbulence
LFBB SIGMET 2 VALID 180900/181300 LFPW
LFBB BORDEAUX FIR/UIR SEV TURB FCST WI N4430 E00245 - N4300 E00230 - N4245 E00215 - N4330 E00100 - N4430 E00245 SFC/FL060 STNR NC=



MET'MAP, your aeronautical weather chart ! - Copyright ORBIFLY December 2007 - Disclaimer

ORBIFLY MET'MAP TEAM :

Programming & Development : Alexandra Zaïnal
Concept & Development : Baudouin d'Aumeries
Co-Development & Prog : Marc-Olivier Méhu
Technical & hardware support : Manuel Goepfert

Contact : metmap@orbifly.com




SOURCES & CREDITS :

   NOAA